createdAt,value
2022-12-09T00:02:31.085Z,67.48
2022-12-09T00:07:52.322Z,67.49
2022-12-09T00:13:13.562Z,67.04
2022-12-09T00:18:35.364Z,67.39
2022-12-09T00:23:57.763Z,67.07
2022-12-09T00:29:18.499Z,67.31
2022-12-09T00:34:39.211Z,67.04
2022-12-09T00:40:02.401Z,67.70
2022-12-09T00:45:23.010Z,67.71
2022-12-09T00:50:45.671Z,67.72
2022-12-09T00:56:07.060Z,67.79
2022-12-09T01:01:29.138Z,67.38
2022-12-09T01:06:51.002Z,67.26
2022-12-09T01:12:11.707Z,66.98
2022-12-09T01:17:32.613Z,67.35
2022-12-09T01:22:53.733Z,67.78
2022-12-09T01:28:14.610Z,67.89
2022-12-09T01:33:35.610Z,67.32
2022-12-09T01:38:58.891Z,67.63
2022-12-09T01:44:27.282Z,67.47
2022-12-09T01:49:48.353Z,67.54
2022-12-09T01:55:10.299Z,67.40
2022-12-09T02:00:31.414Z,67.23
2022-12-09T02:05:53.420Z,67.20
2022-12-09T02:11:23.047Z,67.59
2022-12-09T02:17:06.151Z,68.26
2022-12-09T02:22:41.122Z,67.49
2022-12-09T02:28:25.352Z,67.72
2022-12-09T02:34:17.635Z,67.45
2022-12-09T02:39:55.067Z,67.67
2022-12-09T02:45:21.608Z,67.71
2022-12-09T02:50:49.612Z,67.84
2022-12-09T02:56:14.314Z,68.02
2022-12-09T03:01:50.021Z,68.47
2022-12-09T03:07:26.940Z,67.79
2022-12-09T03:12:56.325Z,68.37
2022-12-09T03:18:21.474Z,68.04
2022-12-09T03:23:46.276Z,68.24
2022-12-09T03:29:12.779Z,68.11
2022-12-09T03:34:38.838Z,68.43
2022-12-09T03:40:01.337Z,68.17
2022-12-09T03:45:24.861Z,68.67
2022-12-09T03:51:10.127Z,68.33
2022-12-09T03:56:41.310Z,68.19
2022-12-09T04:02:05.108Z,68.75
2022-12-09T04:07:26.719Z,68.59
2022-12-09T04:12:48.256Z,68.70
2022-12-09T04:18:09.696Z,68.45
2022-12-09T04:23:30.517Z,68.40
2022-12-09T04:28:51.483Z,68.11
2022-12-09T04:34:12.228Z,68.67
2022-12-09T04:39:33.077Z,68.87
2022-12-09T04:44:53.814Z,68.55
2022-12-09T04:50:15.210Z,68.69
2022-12-09T04:55:36.340Z,68.44
2022-12-09T05:00:58.142Z,68.62
2022-12-09T05:06:20.787Z,68.98
2022-12-09T05:11:42.143Z,68.80
2022-12-09T05:17:04.577Z,68.65
2022-12-09T05:22:25.528Z,68.50
2022-12-09T05:27:46.628Z,68.51
2022-12-09T05:33:08.395Z,68.05
2022-12-09T05:38:30.616Z,68.04
2022-12-09T05:43:52.107Z,68.54
2022-12-09T05:49:12.973Z,68.48
2022-12-09T05:54:34.581Z,68.47
2022-12-09T05:59:55.314Z,68.27
2022-12-09T06:05:16.331Z,69.01
2022-12-09T06:10:41.363Z,69.08
2022-12-09T06:16:04.397Z,68.62
2022-12-09T06:21:26.125Z,68.05
2022-12-09T06:26:47.111Z,68.03
2022-12-09T06:32:08.448Z,68.25
2022-12-09T06:37:29.835Z,68.20
2022-12-09T06:42:51.383Z,68.27
2022-12-09T06:48:12.661Z,68.59
2022-12-09T06:53:34.212Z,68.54
2022-12-09T06:58:54.962Z,67.98
2022-12-09T07:04:15.840Z,67.88
2022-12-09T07:09:37.023Z,67.78
2022-12-09T07:14:58.242Z,67.52
2022-12-09T07:20:19.533Z,67.51
2022-12-09T07:25:40.745Z,67.74
2022-12-09T07:31:02.496Z,67.85
2022-12-09T07:36:25.277Z,67.75
2022-12-09T07:41:48.593Z,67.86
2022-12-09T07:47:10.001Z,68.09
2022-12-09T07:52:31.314Z,67.97
2022-12-09T07:57:52.228Z,67.96
2022-12-09T08:03:13.948Z,68.47
2022-12-09T08:08:35.067Z,68.33
2022-12-09T08:13:58.429Z,68.22
2022-12-09T08:19:19.504Z,68.50
2022-12-09T08:24:40.900Z,68.99
2022-12-09T08:30:01.931Z,69.09
2022-12-09T08:35:23.706Z,69.30
2022-12-09T08:40:45.024Z,68.94
2022-12-09T08:46:06.432Z,68.93
2022-12-09T08:51:29.777Z,69.49
2022-12-09T08:56:53.638Z,69.16
2022-12-09T09:02:14.773Z,69.45
2022-12-09T09:07:37.246Z,69.85
2022-12-09T09:12:58.338Z,69.37
2022-12-09T09:18:19.678Z,69.94
2022-12-09T09:23:40.888Z,69.89
2022-12-09T09:29:01.551Z,69.42
2022-12-09T09:34:23.115Z,69.47
2022-12-09T09:39:44.765Z,69.96
2022-12-09T09:45:14.730Z,69.85
2022-12-09T09:50:59.101Z,70.00
2022-12-09T09:56:20.023Z,69.80
2022-12-09T10:01:44.104Z,69.89
2022-12-09T10:07:17.965Z,69.54
2022-12-09T10:13:12.304Z,69.95
2022-12-09T10:19:15.592Z,70.05
2022-12-09T10:24:40.720Z,69.84
2022-12-09T10:30:10.950Z,69.72
2022-12-09T10:35:33.762Z,70.11
2022-12-09T10:42:03.782Z,70.07
2022-12-09T10:47:28.237Z,70.62
2022-12-09T10:52:50.071Z,69.67
2022-12-09T10:58:15.753Z,70.41
2022-12-09T11:03:52.084Z,69.54
2022-12-09T11:09:25.195Z,69.88
2022-12-09T11:14:52.521Z,69.82
2022-12-09T11:20:14.362Z,69.15
2022-12-09T11:25:37.071Z,69.96
2022-12-09T11:36:59.102Z,69.74
2022-12-09T11:42:23.148Z,74.01
2022-12-09T11:53:34.019Z,70.92
2022-12-09T11:59:06.617Z,70.10
2022-12-09T12:04:39.744Z,71.17
2022-12-09T12:10:02.517Z,70.26
2022-12-09T12:15:32.371Z,70.49
2022-12-09T12:21:20.472Z,70.32
2022-12-09T12:27:02.115Z,70.02
2022-12-09T12:32:41.026Z,70.32
2022-12-09T12:38:30.875Z,70.49
2022-12-09T12:44:37.989Z,71.03
2022-12-09T12:50:22.841Z,71.17
2022-12-09T12:55:48.942Z,70.81
2022-12-09T13:01:30.660Z,70.50
2022-12-09T13:07:08.159Z,71.00
2022-12-09T13:12:56.657Z,70.98
2022-12-09T13:18:23.592Z,70.99
2022-12-09T13:24:13.623Z,70.96
2022-12-09T13:29:40.220Z,70.24
2022-12-09T13:35:13.651Z,70.67
2022-12-09T13:40:39.052Z,70.29
2022-12-09T13:46:01.131Z,70.33
2022-12-09T13:51:23.274Z,70.31
2022-12-09T13:56:47.721Z,70.81
2022-12-09T14:02:24.979Z,70.52
2022-12-09T14:08:21.982Z,70.94
2022-12-09T14:13:42.867Z,70.45
2022-12-09T14:19:45.079Z,70.88
2022-12-09T14:25:28.396Z,75.98
2022-12-09T14:30:54.634Z,71.29
2022-12-09T14:36:15.574Z,71.30
2022-12-09T14:42:01.448Z,71.13
2022-12-09T14:47:31.149Z,71.26
2022-12-09T14:52:57.618Z,71.16
2022-12-09T14:58:22.608Z,71.43
2022-12-09T15:03:59.959Z,71.14
2022-12-09T15:09:23.436Z,70.94
2022-12-09T15:14:45.326Z,72.03
2022-12-09T15:20:07.441Z,71.23
2022-12-09T15:25:28.905Z,72.13
2022-12-09T15:31:05.780Z,71.54
2022-12-09T15:36:32.888Z,72.29
2022-12-09T15:42:07.360Z,72.20
2022-12-09T15:47:36.574Z,71.59
2022-12-09T15:53:01.672Z,71.59
2022-12-09T15:58:27.326Z,71.53
2022-12-09T16:03:50.917Z,72.24
2022-12-09T16:09:18.014Z,72.26
2022-12-09T16:14:44.286Z,72.33
2022-12-09T16:20:33.130Z,72.57
2022-12-09T16:26:04.785Z,72.28
2022-12-09T16:31:28.306Z,72.14
2022-12-09T16:36:55.585Z,72.27
2022-12-09T16:42:30.850Z,72.15
2022-12-09T16:47:56.108Z,71.97
2022-12-09T16:53:20.429Z,72.22
2022-12-09T16:58:41.200Z,72.57
2022-12-09T17:04:10.494Z,73.16
2022-12-09T17:09:31.699Z,72.47
2022-12-09T17:14:54.105Z,72.60
2022-12-09T17:20:15.038Z,72.55
2022-12-09T17:25:35.710Z,72.59
2022-12-09T17:31:00.164Z,72.44
2022-12-09T17:36:20.935Z,72.80
2022-12-09T17:41:42.847Z,72.60
2022-12-09T17:47:04.045Z,72.33
2022-12-09T17:52:25.064Z,75.15
2022-12-09T17:57:49.812Z,72.68
2022-12-09T18:03:22.119Z,72.61
2022-12-09T18:08:48.706Z,73.01
2022-12-09T18:14:10.411Z,72.67
2022-12-09T18:19:31.874Z,72.39
2022-12-09T18:24:52.469Z,72.67
2022-12-09T18:30:13.405Z,72.77
2022-12-09T18:35:34.608Z,73.03
2022-12-09T18:41:01.218Z,72.96
2022-12-09T18:46:27.687Z,73.18
2022-12-09T18:51:50.944Z,72.95
2022-12-09T18:57:11.575Z,72.82
2022-12-09T19:02:32.525Z,73.14
2022-12-09T19:07:53.217Z,73.13
2022-12-09T19:13:14.089Z,73.08
2022-12-09T19:18:34.747Z,73.22
2022-12-09T19:23:56.445Z,73.52
2022-12-09T19:29:18.289Z,73.35
2022-12-09T19:34:39.013Z,73.32
2022-12-09T19:40:00.012Z,73.51
2022-12-09T19:45:20.726Z,73.42
2022-12-09T19:50:41.431Z,73.61
2022-12-09T19:56:04.796Z,73.06
2022-12-09T20:01:28.823Z,73.74
2022-12-09T20:06:49.748Z,73.29
2022-12-09T20:12:10.693Z,73.48
2022-12-09T20:17:31.573Z,73.57
2022-12-09T20:22:52.442Z,73.47
2022-12-09T20:28:13.319Z,73.87
2022-12-09T20:33:34.790Z,73.68
2022-12-09T20:38:58.897Z,73.68
2022-12-09T20:44:20.192Z,73.99
2022-12-09T20:49:40.742Z,73.66
2022-12-09T20:55:01.720Z,73.69
2022-12-09T21:00:23.611Z,74.10
2022-12-09T21:05:44.681Z,73.99
2022-12-09T21:11:08.118Z,74.16
2022-12-09T21:16:32.321Z,74.35
2022-12-09T21:21:54.490Z,73.98
2022-12-09T21:27:15.040Z,74.27
2022-12-09T21:32:35.691Z,75.77
2022-12-09T21:37:56.496Z,74.42
2022-12-09T21:43:17.137Z,74.96
2022-12-09T21:48:38.784Z,74.43
2022-12-09T21:53:59.749Z,74.23
2022-12-09T21:59:20.865Z,74.46
2022-12-09T22:04:41.822Z,74.21
2022-12-09T22:10:02.579Z,74.25
2022-12-09T22:15:23.362Z,73.95
2022-12-09T22:21:22.620Z,74.37
2022-12-09T22:26:25.841Z,74.51
2022-12-09T22:31:47.105Z,74.11
2022-12-09T22:37:35.176Z,74.78
2022-12-09T22:42:49.595Z,74.72
2022-12-09T22:48:10.259Z,74.18
2022-12-09T22:53:31.106Z,74.27
2022-12-09T22:58:52.083Z,74.33
2022-12-09T23:04:14.716Z,73.91
2022-12-09T23:09:35.666Z,74.27
2022-12-09T23:14:56.537Z,74.60
2022-12-09T23:20:17.568Z,74.50
2022-12-09T23:25:38.784Z,74.44
2022-12-09T23:31:02.070Z,74.08
2022-12-09T23:36:26.371Z,74.00
2022-12-09T23:41:48.219Z,74.29
2022-12-09T23:47:09.074Z,74.52
2022-12-09T23:52:29.790Z,75.29
2022-12-09T23:57:50.474Z,75.02
